sensor_id;sensor_type;location;lat;lon;timestamp;P1;durP1;ratioP1;P2;durP2;ratioP2
60873;SDS011;46715;40.642;-7.920;2023-12-29T00:02:00;56.90;;;39.27;;
60873;SDS011;46715;40.642;-7.920;2023-12-29T00:04:07;63.30;;;42.03;;
60873;SDS011;46715;40.642;-7.920;2023-12-29T00:06:08;70.47;;;46.33;;
60873;SDS011;46715;40.642;-7.920;2023-12-29T00:08:09;75.73;;;50.03;;
60873;SDS011;46715;40.642;-7.920;2023-12-29T00:10:09;83.73;;;53.20;;
60873;SDS011;46715;40.642;-7.920;2023-12-29T00:12:13;80.80;;;52.90;;
60873;SDS011;46715;40.642;-7.920;2023-12-29T00:14:16;83.65;;;53.25;;
60873;SDS011;46715;40.642;-7.920;2023-12-29T00:16:17;78.90;;;50.53;;
60873;SDS011;46715;40.642;-7.920;2023-12-29T00:18:18;86.63;;;52.70;;
60873;SDS011;46715;40.642;-7.920;2023-12-29T00:20:19;79.80;;;53.28;;
60873;SDS011;46715;40.642;-7.920;2023-12-29T00:22:20;78.43;;;49.57;;
60873;SDS011;46715;40.642;-7.920;2023-12-29T00:24:21;66.97;;;49.55;;
60873;SDS011;46715;40.642;-7.920;2023-12-29T00:26:22;85.47;;;51.83;;
60873;SDS011;46715;40.642;-7.920;2023-12-29T00:28:28;73.35;;;47.75;;
60873;SDS011;46715;40.642;-7.920;2023-12-29T00:30:29;88.40;;;55.53;;
60873;SDS011;46715;40.642;-7.920;2023-12-29T00:32:32;119.47;;;72.43;;
60873;SDS011;46715;40.642;-7.920;2023-12-29T00:34:33;104.90;;;69.57;;
60873;SDS011;46715;40.642;-7.920;2023-12-29T00:36:35;108.75;;;71.95;;
60873;SDS011;46715;40.642;-7.920;2023-12-29T00:38:35;115.67;;;75.77;;
60873;SDS011;46715;40.642;-7.920;2023-12-29T00:40:36;123.60;;;84.33;;
60873;SDS011;46715;40.642;-7.920;2023-12-29T00:42:37;122.47;;;85.23;;
60873;SDS011;46715;40.642;-7.920;2023-12-29T00:44:39;139.75;;;93.35;;
60873;SDS011;46715;40.642;-7.920;2023-12-29T00:48:41;129.82;;;88.10;;
60873;SDS011;46715;40.642;-7.920;2023-12-29T00:50:42;136.43;;;91.30;;
60873;SDS011;46715;40.642;-7.920;2023-12-29T00:52:44;122.90;;;88.60;;
60873;SDS011;46715;40.642;-7.920;2023-12-29T00:54:45;132.23;;;89.43;;
60873;SDS011;46715;40.642;-7.920;2023-12-29T00:58:53;102.78;;;70.65;;
60873;SDS011;46715;40.642;-7.920;2023-12-29T01:00:54;98.40;;;69.10;;
60873;SDS011;46715;40.642;-7.920;2023-12-29T01:02:55;111.20;;;70.33;;
60873;SDS011;46715;40.642;-7.920;2023-12-29T01:04:59;97.75;;;63.90;;
60873;SDS011;46715;40.642;-7.920;2023-12-29T01:07:00;111.63;;;76.23;;
60873;SDS011;46715;40.642;-7.920;2023-12-29T01:09:00;114.63;;;76.73;;
60873;SDS011;46715;40.642;-7.920;2023-12-29T01:11:01;114.73;;;74.97;;
60873;SDS011;46715;40.642;-7.920;2023-12-29T01:13:02;112.40;;;77.32;;
60873;SDS011;46715;40.642;-7.920;2023-12-29T01:15:03;106.23;;;73.03;;
60873;SDS011;46715;40.642;-7.920;2023-12-29T01:17:04;108.75;;;73.72;;
60873;SDS011;46715;40.642;-7.920;2023-12-29T01:19:06;96.75;;;69.65;;
60873;SDS011;46715;40.642;-7.920;2023-12-29T01:21:07;101.40;;;64.30;;
60873;SDS011;46715;40.642;-7.920;2023-12-29T01:23:07;104.10;;;67.43;;
60873;SDS011;46715;40.642;-7.920;2023-12-29T01:25:08;75.17;;;50.13;;
60873;SDS011;46715;40.642;-7.920;2023-12-29T01:27:09;103.67;;;64.83;;
60873;SDS011;46715;40.642;-7.920;2023-12-29T01:29:10;96.53;;;58.33;;
60873;SDS011;46715;40.642;-7.920;2023-12-29T01:31:10;101.13;;;60.70;;
60873;SDS011;46715;40.642;-7.920;2023-12-29T01:33:13;98.35;;;61.72;;
60873;SDS011;46715;40.642;-7.920;2023-12-29T01:35:14;85.93;;;56.57;;
60873;SDS011;46715;40.642;-7.920;2023-12-29T01:37:15;84.63;;;55.33;;
60873;SDS011;46715;40.642;-7.920;2023-12-29T01:39:16;82.37;;;53.43;;
60873;SDS011;46715;40.642;-7.920;2023-12-29T01:41:20;87.22;;;58.85;;
60873;SDS011;46715;40.642;-7.920;2023-12-29T01:43:21;80.07;;;53.70;;
60873;SDS011;46715;40.642;-7.920;2023-12-29T01:45:22;82.47;;;56.07;;
60873;SDS011;46715;40.642;-7.920;2023-12-29T01:47:24;90.07;;;60.13;;
60873;SDS011;46715;40.642;-7.920;2023-12-29T01:49:26;110.05;;;66.35;;
60873;SDS011;46715;40.642;-7.920;2023-12-29T01:51:28;85.35;;;56.80;;
60873;SDS011;46715;40.642;-7.920;2023-12-29T01:53:31;105.07;;;63.17;;
60873;SDS011;46715;40.642;-7.920;2023-12-29T01:55:32;83.63;;;55.47;;
60873;SDS011;46715;40.642;-7.920;2023-12-29T01:57:34;88.60;;;58.10;;
60873;SDS011;46715;40.642;-7.920;2023-12-29T01:59:36;84.80;;;55.58;;
60873;SDS011;46715;40.642;-7.920;2023-12-29T02:01:38;91.00;;;59.13;;
60873;SDS011;46715;40.642;-7.920;2023-12-29T02:03:40;94.75;;;64.07;;
60873;SDS011;46715;40.642;-7.920;2023-12-29T02:05:41;92.07;;;59.38;;
60873;SDS011;46715;40.642;-7.920;2023-12-29T02:07:44;91.15;;;60.47;;
60873;SDS011;46715;40.642;-7.920;2023-12-29T02:09:46;92.68;;;60.67;;
60873;SDS011;46715;40.642;-7.920;2023-12-29T02:11:47;83.30;;;58.43;;
60873;SDS011;46715;40.642;-7.920;2023-12-29T02:13:48;92.85;;;60.72;;
60873;SDS011;46715;40.642;-7.920;2023-12-29T02:15:50;100.57;;;65.37;;
60873;SDS011;46715;40.642;-7.920;2023-12-29T02:17:57;106.70;;;65.93;;
60873;SDS011;46715;40.642;-7.920;2023-12-29T02:20:02;95.70;;;64.13;;
60873;SDS011;46715;40.642;-7.920;2023-12-29T02:22:03;90.80;;;59.60;;
60873;SDS011;46715;40.642;-7.920;2023-12-29T02:24:04;88.77;;;58.47;;
60873;SDS011;46715;40.642;-7.920;2023-12-29T02:26:07;91.47;;;58.50;;
60873;SDS011;46715;40.642;-7.920;2023-12-29T02:28:20;87.85;;;57.78;;
60873;SDS011;46715;40.642;-7.920;2023-12-29T02:30:29;80.43;;;55.22;;
60873;SDS011;46715;40.642;-7.920;2023-12-29T02:32:46;91.00;;;56.28;;
60873;SDS011;46715;40.642;-7.920;2023-12-29T02:34:48;86.55;;;55.70;;
60873;SDS011;46715;40.642;-7.920;2023-12-29T02:36:52;71.97;;;49.65;;
60873;SDS011;46715;40.642;-7.920;2023-12-29T02:38:54;78.20;;;49.05;;
60873;SDS011;46715;40.642;-7.920;2023-12-29T02:40:56;72.03;;;46.35;;
60873;SDS011;46715;40.642;-7.920;2023-12-29T02:42:57;68.35;;;46.42;;
60873;SDS011;46715;40.642;-7.920;2023-12-29T02:44:58;61.90;;;43.63;;
60873;SDS011;46715;40.642;-7.920;2023-12-29T02:46:58;62.47;;;41.80;;
60873;SDS011;46715;40.642;-7.920;2023-12-29T02:49:00;54.45;;;39.60;;
60873;SDS011;46715;40.642;-7.920;2023-12-29T02:51:00;58.60;;;40.03;;
60873;SDS011;46715;40.642;-7.920;2023-12-29T02:53:01;56.93;;;39.77;;
60873;SDS011;46715;40.642;-7.920;2023-12-29T02:55:04;61.08;;;40.10;;
60873;SDS011;46715;40.642;-7.920;2023-12-29T02:57:05;65.13;;;40.57;;
60873;SDS011;46715;40.642;-7.920;2023-12-29T02:59:06;55.93;;;40.03;;
60873;SDS011;46715;40.642;-7.920;2023-12-29T03:01:06;60.30;;;40.03;;
60873;SDS011;46715;40.642;-7.920;2023-12-29T03:03:08;65.68;;;40.65;;
60873;SDS011;46715;40.642;-7.920;2023-12-29T03:05:09;58.70;;;41.50;;
60873;SDS011;46715;40.642;-7.920;2023-12-29T03:07:10;67.85;;;41.25;;
60873;SDS011;46715;40.642;-7.920;2023-12-29T03:09:11;65.83;;;42.40;;
60873;SDS011;46715;40.642;-7.920;2023-12-29T03:11:12;64.47;;;42.40;;
60873;SDS011;46715;40.642;-7.920;2023-12-29T03:13:13;63.67;;;41.37;;
60873;SDS011;46715;40.642;-7.920;2023-12-29T03:15:14;64.40;;;42.63;;
60873;SDS011;46715;40.642;-7.920;2023-12-29T03:17:15;59.93;;;40.47;;
60873;SDS011;46715;40.642;-7.920;2023-12-29T03:19:15;57.50;;;40.00;;
60873;SDS011;46715;40.642;-7.920;2023-12-29T03:21:16;45.40;;;31.23;;
60873;SDS011;46715;40.642;-7.920;2023-12-29T03:23:17;34.93;;;25.97;;
60873;SDS011;46715;40.642;-7.920;2023-12-29T03:25:18;36.60;;;25.77;;
60873;SDS011;46715;40.642;-7.920;2023-12-29T03:27:18;37.23;;;23.97;;
60873;SDS011;46715;40.642;-7.920;2023-12-29T03:29:19;31.83;;;23.60;;
60873;SDS011;46715;40.642;-7.920;2023-12-29T03:31:21;33.15;;;22.05;;
60873;SDS011;46715;40.642;-7.920;2023-12-29T03:33:21;31.50;;;21.13;;
60873;SDS011;46715;40.642;-7.920;2023-12-29T03:35:22;31.73;;;20.93;;
60873;SDS011;46715;40.642;-7.920;2023-12-29T03:37:23;33.30;;;23.77;;
60873;SDS011;46715;40.642;-7.920;2023-12-29T03:39:24;28.43;;;19.60;;
60873;SDS011;46715;40.642;-7.920;2023-12-29T03:41:24;32.43;;;21.53;;
60873;SDS011;46715;40.642;-7.920;2023-12-29T03:43:25;36.10;;;23.40;;
60873;SDS011;46715;40.642;-7.920;2023-12-29T03:45:26;35.90;;;24.57;;
60873;SDS011;46715;40.642;-7.920;2023-12-29T03:47:27;38.13;;;25.93;;
60873;SDS011;46715;40.642;-7.920;2023-12-29T03:49:28;33.75;;;22.90;;
60873;SDS011;46715;40.642;-7.920;2023-12-29T03:51:29;34.53;;;23.02;;
60873;SDS011;46715;40.642;-7.920;2023-12-29T03:53:30;33.47;;;22.07;;
60873;SDS011;46715;40.642;-7.920;2023-12-29T03:55:32;35.50;;;20.58;;
60873;SDS011;46715;40.642;-7.920;2023-12-29T03:57:32;35.13;;;21.87;;
60873;SDS011;46715;40.642;-7.920;2023-12-29T03:59:36;31.03;;;21.43;;
60873;SDS011;46715;40.642;-7.920;2023-12-29T04:01:37;26.30;;;19.60;;
60873;SDS011;46715;40.642;-7.920;2023-12-29T04:03:38;29.90;;;19.60;;
60873;SDS011;46715;40.642;-7.920;2023-12-29T04:05:39;25.50;;;18.23;;
60873;SDS011;46715;40.642;-7.920;2023-12-29T04:07:40;30.23;;;19.60;;
60873;SDS011;46715;40.642;-7.920;2023-12-29T04:09:42;32.90;;;20.33;;
60873;SDS011;46715;40.642;-7.920;2023-12-29T04:13:43;29.02;;;19.80;;
60873;SDS011;46715;40.642;-7.920;2023-12-29T04:15:44;38.17;;;21.97;;
60873;SDS011;46715;40.642;-7.920;2023-12-29T04:17:45;33.33;;;20.33;;
60873;SDS011;46715;40.642;-7.920;2023-12-29T04:19:46;34.40;;;20.80;;
60873;SDS011;46715;40.642;-7.920;2023-12-29T04:21:47;30.80;;;20.40;;
60873;SDS011;46715;40.642;-7.920;2023-12-29T04:23:48;32.57;;;21.30;;
60873;SDS011;46715;40.642;-7.920;2023-12-29T04:25:49;34.73;;;22.70;;
60873;SDS011;46715;40.642;-7.920;2023-12-29T04:27:49;34.93;;;21.10;;
60873;SDS011;46715;40.642;-7.920;2023-12-29T04:31:53;40.65;;;22.05;;
60873;SDS011;46715;40.642;-7.920;2023-12-29T04:35:54;30.25;;;21.15;;
60873;SDS011;46715;40.642;-7.920;2023-12-29T04:37:55;36.97;;;21.77;;
60873;SDS011;46715;40.642;-7.920;2023-12-29T04:39:56;38.07;;;22.40;;
60873;SDS011;46715;40.642;-7.920;2023-12-29T04:41:57;34.80;;;22.23;;
60873;SDS011;46715;40.642;-7.920;2023-12-29T04:43:58;28.37;;;19.20;;
60873;SDS011;46715;40.642;-7.920;2023-12-29T04:45:59;31.90;;;20.77;;
60873;SDS011;46715;40.642;-7.920;2023-12-29T04:48:00;34.78;;;20.95;;
60873;SDS011;46715;40.642;-7.920;2023-12-29T04:50:01;37.50;;;20.77;;
60873;SDS011;46715;40.642;-7.920;2023-12-29T04:52:03;32.58;;;20.80;;
60873;SDS011;46715;40.642;-7.920;2023-12-29T04:54:04;31.13;;;19.77;;
60873;SDS011;46715;40.642;-7.920;2023-12-29T04:56:04;27.33;;;18.30;;
60873;SDS011;46715;40.642;-7.920;2023-12-29T04:58:05;30.70;;;19.90;;
60873;SDS011;46715;40.642;-7.920;2023-12-29T05:00:06;30.13;;;19.63;;
60873;SDS011;46715;40.642;-7.920;2023-12-29T05:02:07;30.52;;;19.83;;
60873;SDS011;46715;40.642;-7.920;2023-12-29T05:04:08;30.03;;;17.70;;
60873;SDS011;46715;40.642;-7.920;2023-12-29T05:06:09;32.27;;;19.50;;
60873;SDS011;46715;40.642;-7.920;2023-12-29T05:08:10;29.60;;;19.15;;
60873;SDS011;46715;40.642;-7.920;2023-12-29T05:10:11;27.40;;;18.73;;
60873;SDS011;46715;40.642;-7.920;2023-12-29T05:12:12;30.67;;;18.33;;
60873;SDS011;46715;40.642;-7.920;2023-12-29T05:14:12;26.73;;;19.03;;
60873;SDS011;46715;40.642;-7.920;2023-12-29T05:16:13;27.03;;;18.13;;
60873;SDS011;46715;40.642;-7.920;2023-12-29T05:18:14;31.93;;;19.83;;
60873;SDS011;46715;40.642;-7.920;2023-12-29T05:20:15;27.50;;;17.43;;
60873;SDS011;46715;40.642;-7.920;2023-12-29T05:22:16;27.03;;;16.83;;
60873;SDS011;46715;40.642;-7.920;2023-12-29T05:24:23;26.38;;;16.70;;
60873;SDS011;46715;40.642;-7.920;2023-12-29T05:26:24;25.23;;;15.60;;
60873;SDS011;46715;40.642;-7.920;2023-12-29T05:28:25;25.83;;;17.42;;
60873;SDS011;46715;40.642;-7.920;2023-12-29T05:30:26;26.03;;;17.63;;
60873;SDS011;46715;40.642;-7.920;2023-12-29T05:32:28;30.23;;;18.02;;
60873;SDS011;46715;40.642;-7.920;2023-12-29T05:34:28;26.03;;;17.37;;
60873;SDS011;46715;40.642;-7.920;2023-12-29T05:36:29;33.72;;;18.70;;
60873;SDS011;46715;40.642;-7.920;2023-12-29T05:38:30;29.80;;;18.73;;
60873;SDS011;46715;40.642;-7.920;2023-12-29T05:40:31;33.13;;;19.95;;
60873;SDS011;46715;40.642;-7.920;2023-12-29T05:42:32;31.90;;;19.83;;
60873;SDS011;46715;40.642;-7.920;2023-12-29T05:44:35;33.33;;;18.80;;
60873;SDS011;46715;40.642;-7.920;2023-12-29T05:46:37;30.48;;;17.75;;
60873;SDS011;46715;40.642;-7.920;2023-12-29T05:48:38;25.87;;;17.33;;
60873;SDS011;46715;40.642;-7.920;2023-12-29T05:50:39;28.23;;;16.88;;
60873;SDS011;46715;40.642;-7.920;2023-12-29T05:52:40;24.17;;;15.87;;
60873;SDS011;46715;40.642;-7.920;2023-12-29T05:54:41;27.70;;;15.77;;
60873;SDS011;46715;40.642;-7.920;2023-12-29T05:56:41;27.33;;;16.13;;
60873;SDS011;46715;40.642;-7.920;2023-12-29T05:58:43;29.80;;;16.33;;
60873;SDS011;46715;40.642;-7.920;2023-12-29T06:00:44;24.57;;;16.13;;
60873;SDS011;46715;40.642;-7.920;2023-12-29T06:02:45;26.27;;;15.77;;
60873;SDS011;46715;40.642;-7.920;2023-12-29T06:04:45;28.23;;;16.63;;
60873;SDS011;46715;40.642;-7.920;2023-12-29T06:06:46;29.33;;;17.90;;
60873;SDS011;46715;40.642;-7.920;2023-12-29T06:08:47;29.20;;;19.40;;
60873;SDS011;46715;40.642;-7.920;2023-12-29T06:10:48;34.73;;;19.90;;
60873;SDS011;46715;40.642;-7.920;2023-12-29T06:12:48;33.20;;;19.37;;
60873;SDS011;46715;40.642;-7.920;2023-12-29T06:14:49;34.60;;;20.67;;
60873;SDS011;46715;40.642;-7.920;2023-12-29T06:16:50;30.47;;;20.27;;
60873;SDS011;46715;40.642;-7.920;2023-12-29T06:18:52;32.22;;;20.40;;
60873;SDS011;46715;40.642;-7.920;2023-12-29T06:20:53;32.97;;;21.93;;
60873;SDS011;46715;40.642;-7.920;2023-12-29T06:22:55;34.47;;;22.17;;
60873;SDS011;46715;40.642;-7.920;2023-12-29T06:24:56;40.22;;;23.10;;
60873;SDS011;46715;40.642;-7.920;2023-12-29T06:26:59;39.58;;;21.67;;
60873;SDS011;46715;40.642;-7.920;2023-12-29T06:28:59;45.97;;;24.20;;
60873;SDS011;46715;40.642;-7.920;2023-12-29T06:31:00;38.37;;;22.53;;
60873;SDS011;46715;40.642;-7.920;2023-12-29T06:33:01;39.10;;;23.70;;
60873;SDS011;46715;40.642;-7.920;2023-12-29T06:35:02;39.60;;;24.07;;
60873;SDS011;46715;40.642;-7.920;2023-12-29T06:37:03;32.78;;;21.13;;
60873;SDS011;46715;40.642;-7.920;2023-12-29T06:39:04;41.30;;;23.23;;
60873;SDS011;46715;40.642;-7.920;2023-12-29T06:41:05;39.83;;;23.40;;
60873;SDS011;46715;40.642;-7.920;2023-12-29T06:43:05;36.77;;;22.80;;
60873;SDS011;46715;40.642;-7.920;2023-12-29T06:45:07;33.92;;;21.10;;
60873;SDS011;46715;40.642;-7.920;2023-12-29T06:47:08;38.55;;;23.15;;
60873;SDS011;46715;40.642;-7.920;2023-12-29T06:49:09;37.90;;;22.88;;
60873;SDS011;46715;40.642;-7.920;2023-12-29T06:51:15;37.77;;;22.77;;
60873;SDS011;46715;40.642;-7.920;2023-12-29T06:53:16;33.72;;;22.05;;
60873;SDS011;46715;40.642;-7.920;2023-12-29T06:55:17;33.03;;;21.53;;
60873;SDS011;46715;40.642;-7.920;2023-12-29T06:57:18;41.03;;;22.83;;
60873;SDS011;46715;40.642;-7.920;2023-12-29T06:59:19;36.40;;;22.43;;
60873;SDS011;46715;40.642;-7.920;2023-12-29T07:01:20;33.60;;;21.25;;
60873;SDS011;46715;40.642;-7.920;2023-12-29T07:03:20;30.77;;;19.97;;
60873;SDS011;46715;40.642;-7.920;2023-12-29T07:05:21;34.63;;;21.20;;
60873;SDS011;46715;40.642;-7.920;2023-12-29T07:07:22;32.93;;;20.80;;
60873;SDS011;46715;40.642;-7.920;2023-12-29T07:09:23;35.63;;;21.10;;
60873;SDS011;46715;40.642;-7.920;2023-12-29T07:11:23;30.70;;;19.77;;
60873;SDS011;46715;40.642;-7.920;2023-12-29T07:13:24;27.43;;;17.87;;
60873;SDS011;46715;40.642;-7.920;2023-12-29T07:15:25;31.93;;;20.70;;
60873;SDS011;46715;40.642;-7.920;2023-12-29T07:17:26;31.47;;;20.20;;
60873;SDS011;46715;40.642;-7.920;2023-12-29T07:19:27;30.13;;;19.53;;
60873;SDS011;46715;40.642;-7.920;2023-12-29T07:21:34;28.02;;;17.45;;
60873;SDS011;46715;40.642;-7.920;2023-12-29T07:23:35;28.57;;;18.83;;
60873;SDS011;46715;40.642;-7.920;2023-12-29T07:25:36;32.37;;;18.53;;
60873;SDS011;46715;40.642;-7.920;2023-12-29T07:27:36;29.87;;;18.20;;
60873;SDS011;46715;40.642;-7.920;2023-12-29T07:29:37;28.87;;;17.83;;
60873;SDS011;46715;40.642;-7.920;2023-12-29T07:31:38;27.23;;;18.40;;
60873;SDS011;46715;40.642;-7.920;2023-12-29T07:35:40;35.17;;;18.63;;
60873;SDS011;46715;40.642;-7.920;2023-12-29T07:37:41;29.73;;;18.53;;
60873;SDS011;46715;40.642;-7.920;2023-12-29T07:39:42;34.10;;;19.07;;
60873;SDS011;46715;40.642;-7.920;2023-12-29T07:41:43;29.70;;;18.80;;
60873;SDS011;46715;40.642;-7.920;2023-12-29T07:43:43;30.20;;;18.20;;
60873;SDS011;46715;40.642;-7.920;2023-12-29T07:45:44;45.67;;;20.30;;
60873;SDS011;46715;40.642;-7.920;2023-12-29T07:47:45;27.47;;;16.33;;
60873;SDS011;46715;40.642;-7.920;2023-12-29T07:49:46;32.00;;;16.87;;
60873;SDS011;46715;40.642;-7.920;2023-12-29T07:51:46;21.97;;;13.07;;
60873;SDS011;46715;40.642;-7.920;2023-12-29T07:53:47;23.40;;;13.93;;
60873;SDS011;46715;40.642;-7.920;2023-12-29T07:55:48;22.80;;;14.80;;
60873;SDS011;46715;40.642;-7.920;2023-12-29T07:57:50;21.85;;;14.13;;
60873;SDS011;46715;40.642;-7.920;2023-12-29T07:59:52;25.67;;;14.20;;
60873;SDS011;46715;40.642;-7.920;2023-12-29T08:01:53;19.83;;;13.83;;
60873;SDS011;46715;40.642;-7.920;2023-12-29T08:03:54;24.30;;;15.07;;
60873;SDS011;46715;40.642;-7.920;2023-12-29T08:05:54;34.10;;;16.07;;
60873;SDS011;46715;40.642;-7.920;2023-12-29T08:07:55;35.50;;;19.70;;
60873;SDS011;46715;40.642;-7.920;2023-12-29T08:09:56;29.10;;;17.80;;
60873;SDS011;46715;40.642;-7.920;2023-12-29T08:11:57;31.00;;;18.10;;
60873;SDS011;46715;40.642;-7.920;2023-12-29T08:13:57;28.37;;;17.03;;
60873;SDS011;46715;40.642;-7.920;2023-12-29T08:15:58;36.67;;;19.30;;
60873;SDS011;46715;40.642;-7.920;2023-12-29T08:17:59;31.70;;;18.07;;
60873;SDS011;46715;40.642;-7.920;2023-12-29T08:20:00;33.30;;;18.50;;
60873;SDS011;46715;40.642;-7.920;2023-12-29T08:22:00;30.77;;;19.80;;
60873;SDS011;46715;40.642;-7.920;2023-12-29T08:24:01;33.87;;;20.53;;
60873;SDS011;46715;40.642;-7.920;2023-12-29T08:26:02;28.75;;;18.98;;
60873;SDS011;46715;40.642;-7.920;2023-12-29T08:28:06;32.00;;;21.07;;
60873;SDS011;46715;40.642;-7.920;2023-12-29T08:36:18;25.38;;;16.27;;
60873;SDS011;46715;40.642;-7.920;2023-12-29T08:41:36;27.83;;;17.17;;
60873;SDS011;46715;40.642;-7.920;2023-12-29T08:43:37;27.97;;;15.97;;
60873;SDS011;46715;40.642;-7.920;2023-12-29T08:45:38;23.87;;;14.87;;
60873;SDS011;46715;40.642;-7.920;2023-12-29T08:47:39;25.27;;;14.40;;
60873;SDS011;46715;40.642;-7.920;2023-12-29T08:49:39;22.77;;;15.83;;
60873;SDS011;46715;40.642;-7.920;2023-12-29T08:51:41;25.95;;;16.20;;
60873;SDS011;46715;40.642;-7.920;2023-12-29T08:53:42;31.40;;;17.60;;
60873;SDS011;46715;40.642;-7.920;2023-12-29T08:55:42;25.10;;;16.07;;
60873;SDS011;46715;40.642;-7.920;2023-12-29T08:57:47;26.08;;;16.65;;
60873;SDS011;46715;40.642;-7.920;2023-12-29T08:59:48;30.33;;;17.50;;
60873;SDS011;46715;40.642;-7.920;2023-12-29T09:01:48;26.27;;;15.30;;
60873;SDS011;46715;40.642;-7.920;2023-12-29T09:03:49;21.63;;;13.60;;
60873;SDS011;46715;40.642;-7.920;2023-12-29T09:05:50;25.40;;;15.17;;
60873;SDS011;46715;40.642;-7.920;2023-12-29T09:07:51;25.73;;;14.57;;
60873;SDS011;46715;40.642;-7.920;2023-12-29T09:15:46;25.42;;;16.85;;
60873;SDS011;46715;40.642;-7.920;2023-12-29T09:17:46;23.97;;;15.47;;
60873;SDS011;46715;40.642;-7.920;2023-12-29T09:22:17;23.95;;;16.67;;
60873;SDS011;46715;40.642;-7.920;2023-12-29T09:24:29;24.47;;;16.57;;
60873;SDS011;46715;40.642;-7.920;2023-12-29T09:34:36;30.27;;;18.23;;
60873;SDS011;46715;40.642;-7.920;2023-12-29T09:36:37;29.83;;;18.50;;
60873;SDS011;46715;40.642;-7.920;2023-12-29T09:39:32;28.77;;;18.90;;
60873;SDS011;46715;40.642;-7.920;2023-12-29T09:41:35;36.63;;;21.25;;
60873;SDS011;46715;40.642;-7.920;2023-12-29T09:43:43;39.08;;;22.00;;
60873;SDS011;46715;40.642;-7.920;2023-12-29T09:46:38;35.20;;;22.40;;
60873;SDS011;46715;40.642;-7.920;2023-12-29T09:52:33;41.65;;;27.10;;
60873;SDS011;46715;40.642;-7.920;2023-12-29T09:54:35;44.13;;;29.33;;
60873;SDS011;46715;40.642;-7.920;2023-12-29T09:56:38;51.45;;;31.98;;
60873;SDS011;46715;40.642;-7.920;2023-12-29T09:58:38;42.50;;;28.30;;
60873;SDS011;46715;40.642;-7.920;2023-12-29T10:00:44;37.50;;;25.80;;
60873;SDS011;46715;40.642;-7.920;2023-12-29T10:02:48;37.92;;;26.65;;
60873;SDS011;46715;40.642;-7.920;2023-12-29T10:04:52;39.92;;;26.52;;
60873;SDS011;46715;40.642;-7.920;2023-12-29T10:06:53;35.73;;;25.53;;
60873;SDS011;46715;40.642;-7.920;2023-12-29T10:08:57;27.30;;;21.05;;
60873;SDS011;46715;40.642;-7.920;2023-12-29T10:10:59;28.80;;;19.77;;
60873;SDS011;46715;40.642;-7.920;2023-12-29T10:13:02;23.73;;;18.52;;
60873;SDS011;46715;40.642;-7.920;2023-12-29T10:15:12;23.17;;;14.77;;
60873;SDS011;46715;40.642;-7.920;2023-12-29T10:17:27;16.83;;;12.23;;
60873;SDS011;46715;40.642;-7.920;2023-12-29T10:19:41;22.58;;;17.20;;
60873;SDS011;46715;40.642;-7.920;2023-12-29T10:21:52;20.13;;;13.82;;
60873;SDS011;46715;40.642;-7.920;2023-12-29T10:24:16;19.52;;;13.90;;
60873;SDS011;46715;40.642;-7.920;2023-12-29T10:26:21;14.80;;;11.48;;
60873;SDS011;46715;40.642;-7.920;2023-12-29T10:28:23;23.45;;;13.10;;
60873;SDS011;46715;40.642;-7.920;2023-12-29T10:30:24;17.33;;;12.63;;
60873;SDS011;46715;40.642;-7.920;2023-12-29T10:32:25;20.23;;;12.87;;
60873;SDS011;46715;40.642;-7.920;2023-12-29T10:34:29;21.88;;;15.52;;
60873;SDS011;46715;40.642;-7.920;2023-12-29T10:36:31;25.27;;;17.25;;
60873;SDS011;46715;40.642;-7.920;2023-12-29T10:39:05;23.52;;;17.30;;
60873;SDS011;46715;40.642;-7.920;2023-12-29T10:41:17;19.45;;;13.65;;
60873;SDS011;46715;40.642;-7.920;2023-12-29T10:43:25;17.45;;;11.30;;
60873;SDS011;46715;40.642;-7.920;2023-12-29T10:45:26;14.60;;;10.50;;
60873;SDS011;46715;40.642;-7.920;2023-12-29T10:47:28;13.90;;;10.93;;
60873;SDS011;46715;40.642;-7.920;2023-12-29T10:49:28;16.70;;;11.70;;
60873;SDS011;46715;40.642;-7.920;2023-12-29T10:51:29;17.95;;;12.50;;
60873;SDS011;46715;40.642;-7.920;2023-12-29T10:53:31;15.30;;;11.27;;
60873;SDS011;46715;40.642;-7.920;2023-12-29T10:55:33;20.27;;;12.57;;
60873;SDS011;46715;40.642;-7.920;2023-12-29T10:57:34;19.93;;;12.37;;
60873;SDS011;46715;40.642;-7.920;2023-12-29T10:59:35;16.55;;;11.43;;
60873;SDS011;46715;40.642;-7.920;2023-12-29T11:01:36;17.53;;;10.90;;
60873;SDS011;46715;40.642;-7.920;2023-12-29T11:03:37;14.13;;;11.50;;
60873;SDS011;46715;40.642;-7.920;2023-12-29T11:05:38;12.90;;;10.37;;
60873;SDS011;46715;40.642;-7.920;2023-12-29T11:07:39;17.58;;;11.57;;
60873;SDS011;46715;40.642;-7.920;2023-12-29T11:09:41;16.38;;;11.23;;
60873;SDS011;46715;40.642;-7.920;2023-12-29T11:13:44;13.40;;;7.18;;
60873;SDS011;46715;40.642;-7.920;2023-12-29T11:15:46;10.88;;;7.38;;
60873;SDS011;46715;40.642;-7.920;2023-12-29T11:17:48;13.02;;;8.10;;
60873;SDS011;46715;40.642;-7.920;2023-12-29T11:19:52;18.17;;;10.70;;
60873;SDS011;46715;40.642;-7.920;2023-12-29T11:21:56;24.20;;;14.50;;
60873;SDS011;46715;40.642;-7.920;2023-12-29T11:23:57;25.05;;;15.30;;
60873;SDS011;46715;40.642;-7.920;2023-12-29T11:25:58;27.27;;;16.25;;
60873;SDS011;46715;40.642;-7.920;2023-12-29T11:28:00;13.30;;;7.57;;
60873;SDS011;46715;40.642;-7.920;2023-12-29T11:30:02;9.10;;;5.22;;
60873;SDS011;46715;40.642;-7.920;2023-12-29T11:32:05;6.05;;;3.88;;
60873;SDS011;46715;40.642;-7.920;2023-12-29T11:34:10;5.65;;;3.65;;
60873;SDS011;46715;40.642;-7.920;2023-12-29T11:36:34;7.75;;;4.13;;
60873;SDS011;46715;40.642;-7.920;2023-12-29T11:38:59;5.88;;;3.15;;
60873;SDS011;46715;40.642;-7.920;2023-12-29T11:41:24;10.00;;;3.53;;
60873;SDS011;46715;40.642;-7.920;2023-12-29T11:43:33;6.07;;;3.67;;
60873;SDS011;46715;40.642;-7.920;2023-12-29T11:45:38;7.18;;;4.45;;
60873;SDS011;46715;40.642;-7.920;2023-12-29T11:47:39;5.10;;;3.90;;
60873;SDS011;46715;40.642;-7.920;2023-12-29T11:50:14;5.95;;;3.45;;
60873;SDS011;46715;40.642;-7.920;2023-12-29T11:52:09;6.43;;;3.28;;
60873;SDS011;46715;40.642;-7.920;2023-12-29T11:54:10;5.47;;;2.90;;
60873;SDS011;46715;40.642;-7.920;2023-12-29T11:56:21;5.82;;;3.28;;
60873;SDS011;46715;40.642;-7.920;2023-12-29T11:58:25;8.40;;;3.88;;
60873;SDS011;46715;40.642;-7.920;2023-12-29T12:02:59;7.78;;;4.18;;
60873;SDS011;46715;40.642;-7.920;2023-12-29T12:04:59;5.97;;;2.70;;
60873;SDS011;46715;40.642;-7.920;2023-12-29T12:07:00;6.50;;;2.67;;
60873;SDS011;46715;40.642;-7.920;2023-12-29T12:09:35;8.30;;;3.00;;
60873;SDS011;46715;40.642;-7.920;2023-12-29T12:13:42;6.97;;;3.53;;
60873;SDS011;46715;40.642;-7.920;2023-12-29T12:15:45;6.65;;;3.13;;
60873;SDS011;46715;40.642;-7.920;2023-12-29T12:19:50;5.80;;;2.67;;
60873;SDS011;46715;40.642;-7.920;2023-12-29T12:21:52;5.70;;;2.83;;
60873;SDS011;46715;40.642;-7.920;2023-12-29T12:23:55;5.25;;;2.80;;
60873;SDS011;46715;40.642;-7.920;2023-12-29T12:25:57;5.40;;;2.60;;
60873;SDS011;46715;40.642;-7.920;2023-12-29T12:28:01;7.75;;;2.95;;
60873;SDS011;46715;40.642;-7.920;2023-12-29T12:30:06;4.10;;;2.72;;
60873;SDS011;46715;40.642;-7.920;2023-12-29T12:32:10;8.02;;;2.63;;
60873;SDS011;46715;40.642;-7.920;2023-12-29T12:34:11;6.18;;;3.35;;
60873;SDS011;46715;40.642;-7.920;2023-12-29T12:36:12;3.93;;;2.53;;
60873;SDS011;46715;40.642;-7.920;2023-12-29T12:38:13;6.67;;;3.00;;
60873;SDS011;46715;40.642;-7.920;2023-12-29T12:40:26;7.78;;;3.33;;